Taunton 2W

41° 53' 56"N, 71° 08' 19"W, Elevation 50 ft.
Eastern Time

Hourly observations for the last 72 hours

Date Time Temperature (°F) Humi-
dity

(%)
Wind
(mph)
Pressure Rain (in) Sun
(W/m2)
UV ET
(in)
Air Dew 6 Hour 1 Hr 3 Hr 6 Hr Day
Alt
(in)
Sea
Level

(mb)
Max Min
22 22:00 49.1 47.4 94 Calm 30.39 1029.1 0.00 0 0.0 0.097
22 21:00 51.9 49.9 93 Calm 30.38 1028.8 0.00 0 0.0 0.097
22 20:00 54.7 51.8 79.3 54.7 90 ESE 1 G 3 30.37 1028.4 0.00 0 0.0 0.097
22 19:00 60.8 54.6 80 NE 1 G 4 30.37 1028.4 0.00 0 0.0 0.097
22 18:00 64.9 56.8 75 E 2 G 3 30.35 1027.9 0.00 0 0.0 0.095
22 17:00 72.6 56.0 56 SSE 3 G 8 30.34 1027.6 0.00 79 0.0 0.090
22 16:00 76.5 54.8 47 ESE 5 G 11 30.34 1027.3 0.00 130 0.6 0.082
22 15:00 78.2 47.6 34 ESE 3 G 4 30.34 1027.4 0.00 283 1.3 0.070
22 14:00 78.7 51.0 79.1 42.8 38 E 1 G 5 30.34 1027.5 0.00 541 2.6 0.054
22 13:00 76.4 52.9 44 ENE 2 G 6 30.35 1027.9 0.00 603 3.2 0.038
22 12:00 73.0 53.8 51 E 3 G 4 30.36 1028.3 0.00 621 3.3 0.024
22 11:00 69.7 54.3 58 S 1 G 3 30.38 1028.8 0.00 594 2.7 0.012
22 10:00 61.6 55.0 79 Calm 30.39 1029.2 0.00 454 1.7 0.005
22 09:00 53.0 50.7 92 SSE 0 G 1 30.39 1029.2 0.00 269 0.6 0.001
22 08:00 42.9 41.8 44.4 41.0 96 Calm 30.37 1028.6 0.00 156 0.0 0.000
22 07:00 41.1 40.0 96 Calm 30.35 1027.9 0.00 0 0.0 0.000
22 06:00 42.4 41.3 96 Calm 30.34 1027.5 0.00 0 0.0 0.000
22 05:00 42.8 41.7 96 Calm 30.33 1027.2 0.00 0 0.0 0.000
22 04:00 42.2 41.1 96 Calm 30.32 1026.8 0.00 0 0.0 0.000
22 03:00 43.1 42.0 96 Calm 30.32 1026.7 0.00 0 0.0 0.000
22 02:00 44.3 43.0 56.3 44.3 95 Calm 30.32 1026.7 0.00 0 0.0 0.000
22 01:00 46.2 44.8 95 Calm 30.32 1026.6 0.00 0 0.0 0.000
22 00:00 47.2 45.6 94 Calm 30.31 1026.6 0.00 0 0.0 0.114
21 23:00 48.6 46.7 93 SSE 1 G 3 30.32 1026.7 0.00 0 0.0 0.114
21 22:00 50.8 48.3 91 Calm 30.31 1026.4 0.00 0 0.0 0.114
21 21:00 53.2 48.8 85 SSE 1 G 3 30.30 1026.0 0.00 0 0.0 0.113
21 20:00 55.3 49.6 73.3 55.3 81 S 1 G 3 30.29 1025.7 0.00 0 0.0 0.112
21 19:00 60.0 49.4 68 SSE 2 G 4 30.28 1025.6 0.00 0 0.0 0.110
21 18:00 62.0 47.5 59 S 3 G 8 30.27 1025.1 0.00 0 0.0 0.108
21 17:00 65.7 46.6 50 S 4 G 9 30.25 1024.6 0.00 67 0.0 0.103
21 16:00 70.3 48.0 45 S 6 G 13 30.25 1024.3 0.00 234 0.7 0.092
21 15:00 72.1 47.1 41 SSE 7 G 14 30.24 1024.1 0.00 427 1.5 0.076
21 14:00 72.9 47.8 73.5 38.4 41 SSW 6 G 15 30.24 1024.0 0.00 536 2.5 0.059
21 13:00 72.6 46.3 39 S 7 G 10 30.26 1024.7 0.00 601 3.2 0.041
21 12:00 69.9 48.2 46 SSE 4 G 9 30.27 1025.2 0.00 606 3.2 0.026
21 11:00 67.0 47.2 49 SSW 4 G 8 30.28 1025.5 0.00 555 2.6 0.013
21 10:00 61.6 47.6 60 S 2 G 5 30.28 1025.4 0.00 455 1.7 0.005
21 09:00 49.9 46.5 88 Calm 30.27 1025.0 0.00 306 0.7 0.001
21 08:00 38.4 37.4 42.2 35.4 96 Calm 30.26 1024.7 0.00 146 0.0 0.000
21 07:00 35.6 34.3 95 Calm 30.24 1024.1 0.00 0 0.0 0.000
21 06:00 36.5 35.2 95 Calm 30.22 1023.4 0.00 0 0.0 0.000
21 05:00 37.8 36.5 95 Calm 30.21 1023.0 0.00 0 0.0 0.000
21 04:00 39.3 37.7 94 Calm 30.18 1022.2 0.00 0 0.0 0.000
21 03:00 40.8 38.9 93 E 0 G 1 30.17 1021.7 0.00 0 0.0 0.000
21 02:00 42.2 39.5 55.0 42.2 90 ENE 0 G 1 30.17 1021.7 0.00 0 0.0 0.000
21 01:00 44.5 41.2 88 E 3 G 4 30.16 1021.3 0.00 0 0.0 0.000
21 00:00 45.6 41.7 86 NNW 1 G 2 30.13 1020.5 0.00 0 0.0 0.127
20 23:00 50.0 42.0 74 NW 1 G 2 30.12 1020.0 0.00 0 0.0 0.125
20 22:00 52.3 42.1 68 WNW 6 G 9 30.09 1019.0 0.00 0 0.0 0.124
20 21:00 49.7 43.5 79 W 4 G 7 30.07 1018.5 0.00 0 0.0 0.123
20 20:00 50.2 43.6 70.3 50.2 78 NW 2 G 7 30.06 1018.0 0.00 0 0.0 0.122
20 19:00 54.1 45.3 72 NW 2 G 3 30.04 1017.4 0.00 0 0.0 0.121
20 18:00 60.0 45.6 59 NW 2 G 3 30.02 1016.5 0.00 0 0.0 0.119
20 17:00 68.4 45.1 43 NW 3 G 9 30.00 1016.0 0.00 109 0.0 0.112
20 16:00 70.0 43.9 39 W 8 G 13 29.99 1015.6 0.00 276 0.8 0.099
20 15:00 70.1 44.0 39 NW 9 G 16 29.98 1015.3 0.00 429 1.6 0.084
20 14:00 69.1 45.1 69.3 52.5 42 W 8 G 13 29.99 1015.5 0.00 540 2.7 0.067
20 13:00 68.9 47.3 46 NW 7 G 14 30.01 1016.3 0.00 610 3.3 0.050
20 12:00 66.9 46.0 47 NW 10 G 14 30.03 1016.8 0.00 622 3.2 0.033
20 11:00 65.7 50.1 57 NW 5 G 14 30.04 1017.2 0.00 573 2.7 0.018
20 10:00 63.0 48.5 59 W 10 G 17 30.06 1017.8 0.00 469 1.7 0.008
20 09:00 59.4 50.0 71 WNW 4 G 11 30.04 1017.3 0.00 320 0.7 0.002
20 08:00 52.5 48.4 57.7 46.4 86 WNW 4 G 9 30.03 1016.9 0.00 149 0.0 0.001
20 07:00 49.2 45.8 88 W 1 G 3 30.00 1015.8 0.00 0 0.0 0.001
20 06:00 50.4 47.9 91 W 2 G 5 29.99 1015.6 0.00 0 0.0 0.001
20 05:00 49.8 48.7 96 SSW 0 G 2 29.99 1015.5 0.00 0 0.0 0.001
20 04:00 52.0 50.3 94 SSW 2 G 4 29.99 1015.5 0.00 0 0.0 0.001
20 03:00 56.1 53.8 92 SSW 2 G 3 29.98 1015.2 0.00 0 0.0 0.001
20 02:00 57.7 54.8 59.3 57.5 90 SSW 5 G 9 29.99 1015.5 0.00 0 0.0 0.000
20 01:00 58.0 55.4 91 SSW 5 G 10 30.00 1015.8 0.00 0 0.0 0.000
20 00:00 57.7 54.8 90 S 6 G 12 30.00 1015.8 0.00 0 0.0 0.119
19 23:00 57.9 54.4 88 SW 5 G 13 30.01 1016.3 0.00 0 0.0 0.118

Data generated by WxSolution Version 1.9.0.7, Build 2017.01.18.